createdAt,value
2023-04-23T00:00:48.256Z,99664.28
2023-04-23T00:03:50.758Z,99671.16
2023-04-23T00:06:55.756Z,99662.91
2023-04-23T00:09:58.310Z,99665.44
2023-04-23T00:13:00.877Z,99667.59
2023-04-23T00:16:03.557Z,99665.31
2023-04-23T00:19:05.481Z,99667.69
2023-04-23T00:22:08.727Z,99671.75
2023-04-23T00:25:10.926Z,99675.28
2023-04-23T00:28:12.579Z,99667.25
2023-04-23T00:31:16.292Z,99670.47
2023-04-23T00:34:18.192Z,99666.91
2023-04-23T00:37:21.381Z,99671.94
2023-04-23T00:40:23.656Z,99675.97
2023-04-23T00:43:25.685Z,99674.38
2023-04-23T00:46:27.392Z,99680.19
2023-04-23T00:49:29.898Z,99679.75
2023-04-23T00:52:33.460Z,99679.06
2023-04-23T00:55:35.835Z,99679.19
2023-04-23T00:58:37.999Z,99678.72
2023-04-23T01:01:40.954Z,99684.19
2023-04-23T01:04:44.215Z,99676.63
2023-04-23T01:07:47.790Z,99682.13
2023-04-23T01:10:49.718Z,99684.78
2023-04-23T01:13:51.678Z,99674.00
2023-04-23T01:16:54.256Z,99675.06
2023-04-23T01:19:56.895Z,99676.31
2023-04-23T01:23:00.132Z,99679.06
2023-04-23T01:26:02.639Z,99678.91
2023-04-23T01:29:04.909Z,99679.94
2023-04-23T01:32:08.009Z,99683.13
2023-04-23T01:35:13.218Z,99690.34
2023-04-23T01:38:18.053Z,99705.38
2023-04-23T01:41:22.735Z,99695.75
2023-04-23T01:44:25.170Z,99700.00
2023-04-23T01:47:27.284Z,99697.69
2023-04-23T01:50:29.964Z,99701.28
2023-04-23T01:53:33.156Z,99707.09
2023-04-23T01:56:36.061Z,99701.34
2023-04-23T01:59:38.629Z,99700.22
2023-04-23T02:02:42.078Z,99700.44
2023-04-23T02:05:44.440Z,55916.78
2023-04-23T02:08:47.647Z,55916.78
2023-04-23T02:11:49.638Z,55916.78
2023-04-23T02:14:51.670Z,55916.78
2023-04-23T02:21:11.247Z,99701.41
2023-04-23T02:24:13.032Z,99704.59
2023-04-23T02:27:14.684Z,99706.13
2023-04-23T02:30:16.669Z,99705.63
2023-04-23T02:33:19.779Z,99705.78
2023-04-23T02:36:22.955Z,99709.53
2023-04-23T02:39:24.883Z,99710.22
2023-04-23T02:42:26.590Z,99710.34
2023-04-23T02:45:28.495Z,99712.28
2023-04-23T02:48:30.812Z,99710.91
2023-04-23T02:51:34.409Z,99715.75
2023-04-23T02:54:39.261Z,99708.03
2023-04-23T02:57:41.302Z,99727.88
2023-04-23T03:00:43.242Z,99719.84
2023-04-23T03:03:45.374Z,99711.28
2023-04-23T03:06:48.547Z,99694.88
2023-04-23T03:09:50.533Z,99698.56
2023-04-23T03:12:52.444Z,99699.47
2023-04-23T03:15:55.611Z,99704.16
2023-04-23T03:18:58.349Z,99704.72
2023-04-23T03:22:03.665Z,99711.28
2023-04-23T03:25:06.866Z,99702.22
2023-04-23T03:28:08.683Z,99698.91
2023-04-23T03:31:11.683Z,99702.09
2023-04-23T03:34:13.645Z,99716.84
2023-04-23T03:37:16.745Z,99708.03
2023-04-23T03:40:19.740Z,99712.63
2023-04-23T03:43:24.324Z,99715.94
2023-04-23T03:46:38.352Z,99709.31
2023-04-23T03:49:40.848Z,99716.97
2023-04-23T03:52:44.968Z,99717.88
2023-04-23T03:55:54.193Z,99721.31
2023-04-23T03:58:56.079Z,99714.69
2023-04-23T04:01:58.450Z,99719.63
2023-04-23T04:05:01.477Z,99726.03
2023-04-23T04:08:05.183Z,99707.47
2023-04-23T04:11:07.036Z,99713.78
2023-04-23T04:14:08.737Z,99722.81
2023-04-23T04:17:10.847Z,99719.56
2023-04-23T04:20:13.310Z,99712.56
2023-04-23T04:23:16.359Z,99718.66
2023-04-23T04:26:18.733Z,99718.50
2023-04-23T04:29:21.481Z,99728.94
2023-04-23T04:32:23.555Z,99724.94
2023-04-23T04:35:25.731Z,99726.69
2023-04-23T04:38:29.805Z,99737.22
2023-04-23T04:41:31.642Z,99725.84
2023-04-23T04:44:33.666Z,99732.06
2023-04-23T04:47:36.394Z,99731.56
2023-04-23T04:50:38.079Z,99725.50
2023-04-23T04:53:41.072Z,99730.53
2023-04-23T04:56:42.824Z,99722.53
2023-04-23T04:59:45.125Z,99724.50
2023-04-23T05:02:47.634Z,99732.66
2023-04-23T05:05:49.645Z,99730.44
2023-04-23T05:08:52.707Z,99725.41
2023-04-23T05:11:54.761Z,99730.66
2023-04-23T05:14:56.429Z,99738.16
2023-04-23T05:17:58.349Z,99736.59
2023-04-23T05:21:00.404Z,99752.66
2023-04-23T05:24:03.608Z,99752.94
2023-04-23T05:27:05.270Z,99741.06
2023-04-23T05:30:09.429Z,99735.25
2023-04-23T05:33:12.496Z,99737.31
2023-04-23T05:36:14.310Z,99733.63
2023-04-23T05:39:17.430Z,99731.69
2023-04-23T05:42:19.163Z,99734.97
2023-04-23T05:45:21.697Z,99731.28
2023-04-23T05:48:24.156Z,99731.97
2023-04-23T05:51:26.175Z,99734.59
2023-04-23T05:54:29.343Z,99731.34
2023-04-23T05:57:31.170Z,99739.00
2023-04-23T06:00:35.488Z,99725.38
2023-04-23T06:03:38.001Z,99731.94
2023-04-23T06:06:40.440Z,55916.78
2023-04-23T06:09:44.761Z,55916.78
2023-04-23T06:12:46.512Z,55916.78
2023-04-23T06:15:48.212Z,55916.78
2023-04-23T06:21:22.744Z,99734.56
2023-04-23T06:24:24.420Z,99741.81
2023-04-23T06:27:27.042Z,99751.22
2023-04-23T06:30:32.812Z,99745.34
2023-04-23T06:33:36.336Z,99738.78
2023-04-23T06:36:39.425Z,99727.41
2023-04-23T06:39:41.274Z,99721.44
2023-04-23T06:42:43.453Z,99724.22
2023-04-23T06:46:07.794Z,99720.56
2023-04-23T06:49:09.591Z,99719.69
2023-04-23T06:52:12.994Z,99709.47
2023-04-23T06:55:15.784Z,99711.28
2023-04-23T06:58:18.274Z,99716.03
2023-04-23T07:01:20.912Z,99706.88
2023-04-23T07:04:22.824Z,99712.06
2023-04-23T07:07:26.062Z,99714.91
2023-04-23T07:10:27.909Z,99712.84
2023-04-23T07:13:29.730Z,99704.84
2023-04-23T07:16:33.662Z,99707.13
2023-04-23T07:19:35.642Z,99700.00
2023-04-23T07:22:38.908Z,99704.84
2023-04-23T07:25:40.673Z,99702.09
2023-04-23T07:28:42.521Z,99698.91
2023-04-23T07:31:44.873Z,99698.91
2023-04-23T07:34:51.358Z,99698.56
2023-04-23T07:37:56.050Z,99695.44
2023-04-23T07:40:57.983Z,99693.72
2023-04-23T07:43:59.855Z,99686.75
2023-04-23T07:47:01.844Z,99687.16
2023-04-23T07:50:06.627Z,99672.78
2023-04-23T07:53:09.855Z,99683.78
2023-04-23T07:56:11.975Z,99681.50
2023-04-23T07:59:13.823Z,99674.44
2023-04-23T08:02:15.862Z,99679.34
2023-04-23T08:05:17.646Z,99679.94
2023-04-23T08:08:21.198Z,99673.88
2023-04-23T08:11:23.682Z,99681.25
2023-04-23T08:14:25.520Z,99665.44
2023-04-23T08:17:27.449Z,99666.75
2023-04-23T08:20:29.318Z,99665.59
2023-04-23T08:23:32.400Z,99671.31
2023-04-23T08:26:34.532Z,99668.84
2023-04-23T08:29:36.349Z,99664.81
2023-04-23T08:32:39.571Z,99663.75
2023-04-23T08:35:41.308Z,99660.06
2023-04-23T08:38:44.352Z,99665.84
2023-04-23T08:41:54.225Z,99662.34
2023-04-23T08:44:56.916Z,99658.19
2023-04-23T08:48:02.013Z,99658.66
2023-04-23T08:51:05.664Z,99650.09
2023-04-23T08:54:15.027Z,99640.28
2023-04-23T08:57:18.136Z,99630.69
2023-04-23T09:00:23.202Z,99640.28
2023-04-23T09:03:26.370Z,99636.72
2023-04-23T09:06:28.676Z,99632.28
2023-04-23T09:09:33.752Z,99629.69
2023-04-23T09:12:36.388Z,99626.41
2023-04-23T09:15:43.313Z,99631.09
2023-04-23T09:18:45.161Z,99628.88
2023-04-23T09:21:47.115Z,99629.00
2023-04-23T09:24:50.620Z,99622.66
2023-04-23T09:27:53.081Z,99620.56
2023-04-23T09:30:55.765Z,99616.38
2023-04-23T09:33:58.313Z,99609.63
2023-04-23T09:37:00.736Z,99618.22
2023-04-23T09:40:09.304Z,99606.59
2023-04-23T09:43:11.306Z,99597.53
2023-04-23T09:46:13.043Z,99591.78
2023-04-23T09:49:16.499Z,99587.34
2023-04-23T09:52:18.492Z,99587.91
2023-04-23T09:55:35.407Z,99580.53
2023-04-23T09:58:37.950Z,99581.88
2023-04-23T10:01:45.229Z,99586.84
2023-04-23T10:05:06.731Z,99576.22
2023-04-23T10:08:17.432Z,99573.06
2023-04-23T10:11:21.980Z,99580.69
2023-04-23T10:14:25.063Z,99571.88
2023-04-23T10:17:27.407Z,99572.72
2023-04-23T10:20:29.483Z,99578.25
2023-04-23T10:23:33.350Z,99573.47
2023-04-23T10:26:39.223Z,99568.28
2023-04-23T10:29:42.700Z,99568.75
2023-04-23T10:32:46.200Z,99566.81
2023-04-23T10:35:48.890Z,99569.31
2023-04-23T10:38:57.993Z,99565.91
2023-04-23T10:42:04.355Z,99555.78
2023-04-23T10:45:23.076Z,99545.25
2023-04-23T10:48:28.016Z,99541.66
2023-04-23T10:52:17.183Z,99523.56
2023-04-23T10:54:59.780Z,99525.72
2023-04-23T10:58:04.767Z,99523.19
2023-04-23T11:01:06.733Z,99524.50
2023-04-23T11:04:23.104Z,99530.97
2023-04-23T11:07:26.460Z,99528.81
2023-04-23T11:10:28.447Z,99523.31
2023-04-23T11:13:31.691Z,99516.41
2023-04-23T11:16:35.433Z,99519.94
2023-04-23T11:19:38.270Z,99517.84
2023-04-23T11:22:41.841Z,99511.09
2023-04-23T11:25:45.314Z,99506.84
2023-04-23T11:28:52.606Z,99496.22
2023-04-23T11:35:05.084Z,99476.97
2023-04-23T11:38:09.135Z,99478.72
2023-04-23T11:41:12.468Z,99480.94
2023-04-23T11:44:16.062Z,99473.78
2023-04-23T11:47:18.799Z,99473.91
2023-04-23T11:50:22.154Z,99468.53
2023-04-23T11:53:24.303Z,99470.16
2023-04-23T11:56:30.320Z,99461.84
2023-04-23T11:59:33.362Z,99464.50
2023-04-23T12:02:35.307Z,99466.47
2023-04-23T12:05:42.387Z,99448.06
2023-04-23T12:08:47.261Z,99440.59
2023-04-23T12:11:52.545Z,99425.81
2023-04-23T12:15:03.958Z,99434.44
2023-04-23T12:18:09.574Z,99426.31
2023-04-23T12:21:13.499Z,99412.44
2023-04-23T12:24:15.552Z,99412.03
2023-04-23T12:27:20.379Z,99405.63
2023-04-23T12:30:28.741Z,99401.97
2023-04-23T12:33:31.077Z,99397.88
2023-04-23T12:36:33.808Z,99407.28
2023-04-23T12:39:35.736Z,99397.44
2023-04-23T12:42:37.622Z,99384.41
2023-04-23T12:45:41.027Z,99379.47
2023-04-23T12:48:42.789Z,99381.56
2023-04-23T12:51:44.457Z,99377.56
2023-04-23T12:54:46.281Z,99369.06
2023-04-23T12:57:48.325Z,99370.22
2023-04-23T13:00:51.680Z,99363.47
2023-04-23T13:03:53.653Z,99352.44
2023-04-23T13:06:55.833Z,99358.59
2023-04-23T13:09:59.380Z,99360.34
2023-04-23T13:13:01.186Z,99356.22
2023-04-23T13:16:05.040Z,99347.97
2023-04-23T13:19:07.126Z,99342.66
2023-04-23T13:22:09.131Z,99338.59
2023-04-23T13:25:10.819Z,99332.13
2023-04-23T13:28:12.520Z,99338.38
2023-04-23T13:31:15.595Z,99324.72
2023-04-23T13:34:17.698Z,99319.56
2023-04-23T13:37:19.656Z,99315.91
2023-04-23T13:40:21.452Z,99302.59
2023-04-23T13:43:23.476Z,99307.00
2023-04-23T13:46:26.894Z,99291.19
2023-04-23T13:49:29.001Z,99289.06
2023-04-23T13:52:31.845Z,99282.03
2023-04-23T13:55:33.878Z,99278.84
2023-04-23T13:58:35.685Z,99271.31
2023-04-23T14:01:38.897Z,99253.59
2023-04-23T14:04:42.036Z,99256.41
2023-04-23T14:07:44.884Z,99252.44
2023-04-23T14:10:46.679Z,99244.53
2023-04-23T14:13:48.499Z,99235.22
2023-04-23T14:16:51.464Z,99222.81
2023-04-23T14:19:53.521Z,99218.59
2023-04-23T14:23:03.023Z,99209.06
2023-04-23T14:26:08.876Z,99209.19
2023-04-23T14:29:19.414Z,99201.72
2023-04-23T14:32:22.752Z,99199.53
2023-04-23T14:35:35.943Z,99189.88
2023-04-23T14:38:44.295Z,99190.81
2023-04-23T14:41:46.061Z,99192.50
2023-04-23T14:44:47.928Z,99182.31
2023-04-23T14:47:51.063Z,99181.06
2023-04-23T14:50:52.863Z,99177.78
2023-04-23T14:53:56.550Z,99167.72
2023-04-23T14:56:58.960Z,99163.50
2023-04-23T15:00:00.930Z,99160.66
2023-04-23T15:03:11.081Z,99151.53
2023-04-23T15:06:13.225Z,99146.63
2023-04-23T15:09:15.732Z,99146.47
2023-04-23T15:12:37.623Z,99145.41
2023-04-23T15:15:48.240Z,99146.94
2023-04-23T15:18:51.324Z,99134.91
2023-04-23T15:21:53.192Z,99139.59
2023-04-23T15:24:55.169Z,99143.78
2023-04-23T15:27:57.932Z,99141.72
2023-04-23T15:30:59.756Z,99139.38
2023-04-23T15:37:58.661Z,99135.09
2023-04-23T15:41:00.576Z,99127.88
2023-04-23T15:44:03.475Z,99127.56
2023-04-23T15:47:05.504Z,99125.50
2023-04-23T15:50:10.220Z,99114.47
2023-04-23T15:53:11.950Z,99122.63
2023-04-23T15:56:13.755Z,99119.94
2023-04-23T15:59:15.721Z,99120.59
2023-04-23T16:02:17.935Z,99125.41
2023-04-23T16:05:21.328Z,99130.69
2023-04-23T16:08:23.365Z,99130.56
2023-04-23T16:11:28.275Z,99133.03
2023-04-23T16:14:30.298Z,99134.28
2023-04-23T16:17:32.350Z,99150.78
2023-04-23T16:20:36.176Z,99186.72
2023-04-23T16:23:38.007Z,99196.53
2023-04-23T16:26:40.252Z,99197.41
2023-04-23T16:29:43.945Z,99224.47
2023-04-23T16:32:46.265Z,99224.56
2023-04-23T16:35:49.665Z,99220.06
2023-04-23T16:38:51.429Z,99226.56
2023-04-23T16:41:53.246Z,99233.22
2023-04-23T16:44:54.978Z,99218.97
2023-04-23T16:47:56.746Z,99213.75
2023-04-23T16:50:59.954Z,99227.56
2023-04-23T16:54:01.964Z,99221.97
2023-04-23T16:57:26.223Z,99208.41
2023-04-23T17:00:27.991Z,99210.06
2023-04-23T17:03:30.072Z,99204.16
2023-04-23T17:06:34.006Z,99206.78
2023-04-23T17:09:35.914Z,99212.66
2023-04-23T17:12:37.909Z,99210.41
2023-04-23T17:15:39.561Z,99191.91
2023-04-23T17:18:41.514Z,99187.56
2023-04-23T17:21:45.054Z,99180.56
2023-04-23T17:24:47.534Z,99167.81
2023-04-23T17:27:49.942Z,99163.59
2023-04-23T17:30:52.417Z,99168.66
2023-04-23T17:33:56.103Z,99179.47
2023-04-23T17:36:59.417Z,99188.06
2023-04-23T17:40:01.106Z,99189.75
2023-04-23T17:43:03.076Z,99188.59
2023-04-23T17:46:04.936Z,99192.78
2023-04-23T17:49:08.051Z,99197.66
2023-04-23T17:52:11.136Z,99196.28
2023-04-23T17:55:13.306Z,99193.41
2023-04-23T17:58:15.424Z,99197.31
2023-04-23T18:01:20.229Z,99180.88
2023-04-23T18:04:23.239Z,99178.47
2023-04-23T18:07:26.546Z,99182.94
2023-04-23T18:10:28.914Z,99190.84
2023-04-23T18:13:30.903Z,99188.81
2023-04-23T18:16:32.939Z,99186.75
2023-04-23T18:19:34.934Z,99178.44
2023-04-23T18:22:38.737Z,99190.31
2023-04-23T18:25:41.674Z,99179.84
2023-04-23T18:28:43.505Z,99182.59
2023-04-23T18:31:45.494Z,99187.06
2023-04-23T18:34:47.805Z,99182.78
2023-04-23T18:37:59.855Z,99175.00
2023-04-23T18:41:12.622Z,99171.19
2023-04-23T18:44:45.249Z,99168.47
2023-04-23T18:47:51.923Z,99165.44
2023-04-23T18:50:55.176Z,99163.31
2023-04-23T18:53:58.437Z,99157.00
2023-04-23T18:57:01.770Z,99158.03
2023-04-23T19:00:06.645Z,99155.16
2023-04-23T19:03:23.551Z,99145.44
2023-04-23T19:06:28.644Z,99152.63
2023-04-23T19:09:31.849Z,99160.59
2023-04-23T19:12:33.559Z,99168.41
2023-04-23T19:15:36.070Z,99182.13
2023-04-23T19:18:38.196Z,99179.09
2023-04-23T19:21:39.948Z,99179.75
2023-04-23T19:24:43.800Z,99184.63
2023-04-23T19:27:45.511Z,99201.38
2023-04-23T19:30:47.164Z,99195.81
2023-04-23T19:33:48.978Z,99203.81
2023-04-23T19:36:50.929Z,99207.28
2023-04-23T19:39:54.268Z,99206.34
2023-04-23T19:42:56.108Z,99206.16
2023-04-23T19:45:57.944Z,99215.66
2023-04-23T19:48:59.823Z,99213.84
2023-04-23T19:52:03.678Z,99210.88
2023-04-23T19:55:08.187Z,99212.91
2023-04-23T19:58:10.105Z,99216.06
2023-04-23T20:01:13.143Z,99220.72
2023-04-23T20:04:15.830Z,99208.56
2023-04-23T20:07:18.438Z,99193.88
2023-04-23T20:10:21.850Z,99200.25
2023-04-23T20:13:23.894Z,99201.78
2023-04-23T20:16:25.816Z,99211.41
2023-04-23T20:19:27.664Z,99208.56
2023-04-23T20:22:29.808Z,99213.75
2023-04-23T20:25:33.547Z,99216.66
2023-04-23T20:28:35.612Z,99215.66
2023-04-23T20:31:37.406Z,99210.38
2023-04-23T20:34:39.247Z,99216.16
2023-04-23T20:37:42.753Z,99219.53
2023-04-23T20:40:46.389Z,99214.75
2023-04-23T20:43:50.236Z,99228.75
2023-04-23T20:46:52.327Z,99213.81
2023-04-23T20:49:54.206Z,99214.75
2023-04-23T20:52:56.052Z,99220.50
2023-04-23T20:55:59.321Z,99229.25
2023-04-23T20:59:01.143Z,99220.63
2023-04-23T21:02:03.595Z,99219.03
2023-04-23T21:05:08.201Z,99227.28
2023-04-23T21:08:10.356Z,99229.59
2023-04-23T21:11:15.979Z,99227.78
2023-04-23T21:14:17.767Z,99235.78
2023-04-23T21:17:19.536Z,99236.19
2023-04-23T21:20:21.521Z,99236.28
2023-04-23T21:23:23.371Z,99233.25
2023-04-23T21:26:26.976Z,99238.63
2023-04-23T21:29:28.602Z,99230.72
2023-04-23T21:32:30.294Z,99233.44
2023-04-23T21:35:32.010Z,99232.03
2023-04-23T21:38:33.743Z,99236.59
2023-04-23T21:41:37.413Z,99234.75
2023-04-23T21:44:40.590Z,99240.31
2023-04-23T21:47:42.346Z,99238.47
2023-04-23T21:50:44.140Z,99237.59
2023-04-23T21:53:45.907Z,99232.81
2023-04-23T21:56:49.051Z,99232.38
2023-04-23T21:59:51.006Z,99239.13
2023-04-23T22:02:55.659Z,99235.16
2023-04-23T22:05:57.843Z,99233.34
2023-04-23T22:08:59.656Z,99232.81
2023-04-23T22:12:03.068Z,99236.03
2023-04-23T22:15:06.438Z,99227.69
2023-04-23T22:18:08.593Z,99233.44
2023-04-23T22:21:10.395Z,99224.88
2023-04-23T22:24:12.162Z,99235.06
2023-04-23T22:27:15.154Z,99231.88
2023-04-23T22:30:17.769Z,99230.06
2023-04-23T22:33:19.685Z,99232.13
2023-04-23T22:36:21.560Z,99224.47
2023-04-23T22:39:23.217Z,99228.03
2023-04-23T22:42:26.577Z,99226.69
2023-04-23T22:45:28.222Z,99226.38
2023-04-23T22:48:30.824Z,99229.09
2023-04-23T22:51:33.377Z,99228.63
2023-04-23T22:54:35.836Z,99219.97
2023-04-23T22:57:39.300Z,99218.91
2023-04-23T23:00:41.565Z,99221.91
2023-04-23T23:03:43.543Z,99221.91
2023-04-23T23:06:46.356Z,99231.63
2023-04-23T23:09:48.142Z,99222.75
2023-04-23T23:12:52.019Z,99228.78
2023-04-23T23:15:53.720Z,99226.28
2023-04-23T23:18:58.371Z,99226.97
2023-04-23T23:22:00.274Z,99218.03
2023-04-23T23:25:02.270Z,99224.44
2023-04-23T23:28:05.411Z,99224.75
2023-04-23T23:31:07.390Z,99219.50
2023-04-23T23:34:09.383Z,99220.06
2023-04-23T23:37:11.392Z,99211.91
2023-04-23T23:40:13.085Z,99215.59
2023-04-23T23:43:16.195Z,99210.22
2023-04-23T23:46:18.316Z,99211.81
2023-04-23T23:49:20.748Z,99213.75
2023-04-23T23:52:22.543Z,99205.06
2023-04-23T23:55:24.540Z,99200.25
2023-04-23T23:58:29.307Z,99208.34
